sensor_id;sensor_type;location;lat;lon;timestamp;P1;durP1;ratioP1;P2;durP2;ratioP2
78774;SDS011;68119;43.398;3.676;2023-04-15T00:01:21;9.73;;;2.95;;
78774;SDS011;68119;43.398;3.676;2023-04-15T00:03:49;9.43;;;2.65;;
78774;SDS011;68119;43.398;3.676;2023-04-15T00:06:18;8.65;;;2.75;;
78774;SDS011;68119;43.398;3.676;2023-04-15T00:08:48;8.77;;;2.80;;
78774;SDS011;68119;43.398;3.676;2023-04-15T00:11:17;8.05;;;2.70;;
78774;SDS011;68119;43.398;3.676;2023-04-15T00:13:46;7.72;;;2.78;;
78774;SDS011;68119;43.398;3.676;2023-04-15T00:16:14;11.32;;;3.17;;
78774;SDS011;68119;43.398;3.676;2023-04-15T00:18:48;8.68;;;2.80;;
78774;SDS011;68119;43.398;3.676;2023-04-15T00:21:14;8.98;;;2.63;;
78774;SDS011;68119;43.398;3.676;2023-04-15T00:23:48;7.30;;;2.60;;
78774;SDS011;68119;43.398;3.676;2023-04-15T00:26:17;8.23;;;2.50;;
78774;SDS011;68119;43.398;3.676;2023-04-15T00:28:46;9.25;;;3.13;;
78774;SDS011;68119;43.398;3.676;2023-04-15T00:31:15;8.15;;;2.53;;
78774;SDS011;68119;43.398;3.676;2023-04-15T00:33:44;10.73;;;2.50;;
78774;SDS011;68119;43.398;3.676;2023-04-15T00:36:15;8.45;;;2.92;;
78774;SDS011;68119;43.398;3.676;2023-04-15T00:38:42;10.18;;;2.97;;
78774;SDS011;68119;43.398;3.676;2023-04-15T00:41:17;9.48;;;2.83;;
78774;SDS011;68119;43.398;3.676;2023-04-15T00:44:22;8.95;;;2.45;;
78774;SDS011;68119;43.398;3.676;2023-04-15T00:46:50;7.47;;;2.85;;
78774;SDS011;68119;43.398;3.676;2023-04-15T00:49:19;7.75;;;2.45;;
78774;SDS011;68119;43.398;3.676;2023-04-15T00:51:52;11.40;;;3.38;;
78774;SDS011;68119;43.398;3.676;2023-04-15T00:54:18;9.90;;;3.80;;
78774;SDS011;68119;43.398;3.676;2023-04-15T00:56:51;10.88;;;3.40;;
78774;SDS011;68119;43.398;3.676;2023-04-15T00:59:21;11.52;;;3.28;;
78774;SDS011;68119;43.398;3.676;2023-04-15T01:01:47;10.98;;;3.30;;
78774;SDS011;68119;43.398;3.676;2023-04-15T01:04:16;14.52;;;5.03;;
78774;SDS011;68119;43.398;3.676;2023-04-15T01:06:42;10.85;;;3.70;;
78774;SDS011;68119;43.398;3.676;2023-04-15T01:09:15;10.05;;;3.80;;
78774;SDS011;68119;43.398;3.676;2023-04-15T01:11:47;10.88;;;3.22;;
78774;SDS011;68119;43.398;3.676;2023-04-15T01:14:18;9.02;;;2.80;;
78774;SDS011;68119;43.398;3.676;2023-04-15T01:16:45;9.57;;;3.13;;
78774;SDS011;68119;43.398;3.676;2023-04-15T01:19:14;14.38;;;5.95;;
78774;SDS011;68119;43.398;3.676;2023-04-15T01:21:52;9.20;;;3.40;;
78774;SDS011;68119;43.398;3.676;2023-04-15T01:24:25;11.23;;;3.00;;
78774;SDS011;68119;43.398;3.676;2023-04-15T01:26:55;11.13;;;2.90;;
78774;SDS011;68119;43.398;3.676;2023-04-15T01:29:21;9.70;;;3.22;;
78774;SDS011;68119;43.398;3.676;2023-04-15T01:31:48;11.05;;;3.25;;
78774;SDS011;68119;43.398;3.676;2023-04-15T01:34:19;9.65;;;3.38;;
78774;SDS011;68119;43.398;3.676;2023-04-15T01:36:52;10.43;;;3.28;;
78774;SDS011;68119;43.398;3.676;2023-04-15T01:39:20;12.38;;;3.35;;
78774;SDS011;68119;43.398;3.676;2023-04-15T01:41:49;11.82;;;3.40;;
78774;SDS011;68119;43.398;3.676;2023-04-15T01:44:14;11.13;;;3.00;;
78774;SDS011;68119;43.398;3.676;2023-04-15T01:46:40;15.00;;;3.20;;
78774;SDS011;68119;43.398;3.676;2023-04-15T01:49:09;9.68;;;3.08;;
78774;SDS011;68119;43.398;3.676;2023-04-15T01:51:37;10.18;;;3.25;;
78774;SDS011;68119;43.398;3.676;2023-04-15T01:54:08;10.98;;;3.60;;
78774;SDS011;68119;43.398;3.676;2023-04-15T01:56:37;12.48;;;3.40;;
78774;SDS011;68119;43.398;3.676;2023-04-15T01:59:08;11.90;;;3.58;;
78774;SDS011;68119;43.398;3.676;2023-04-15T02:01:50;11.68;;;2.90;;
78774;SDS011;68119;43.398;3.676;2023-04-15T02:04:19;10.48;;;2.90;;
78774;SDS011;68119;43.398;3.676;2023-04-15T02:06:52;13.63;;;3.53;;
78774;SDS011;68119;43.398;3.676;2023-04-15T02:09:22;10.32;;;3.20;;
78774;SDS011;68119;43.398;3.676;2023-04-15T02:14:25;10.30;;;2.75;;
78774;SDS011;68119;43.398;3.676;2023-04-15T02:16:56;10.60;;;3.03;;
78774;SDS011;68119;43.398;3.676;2023-04-15T02:19:31;10.35;;;2.80;;
78774;SDS011;68119;43.398;3.676;2023-04-15T02:22:02;9.25;;;2.78;;
78774;SDS011;68119;43.398;3.676;2023-04-15T02:24:31;9.57;;;2.70;;
78774;SDS011;68119;43.398;3.676;2023-04-15T02:27:00;9.40;;;2.53;;
78774;SDS011;68119;43.398;3.676;2023-04-15T02:29:30;6.40;;;2.58;;
78774;SDS011;68119;43.398;3.676;2023-04-15T02:32:02;9.48;;;2.83;;
78774;SDS011;68119;43.398;3.676;2023-04-15T02:34:34;6.97;;;3.05;;
78774;SDS011;68119;43.398;3.676;2023-04-15T02:37:08;8.02;;;2.45;;
78774;SDS011;68119;43.398;3.676;2023-04-15T02:39:35;8.88;;;2.67;;
78774;SDS011;68119;43.398;3.676;2023-04-15T02:44:38;6.20;;;2.25;;
78774;SDS011;68119;43.398;3.676;2023-04-15T02:47:09;7.90;;;2.35;;
78774;SDS011;68119;43.398;3.676;2023-04-15T02:49:46;8.30;;;2.50;;
78774;SDS011;68119;43.398;3.676;2023-04-15T02:52:15;8.23;;;2.45;;
78774;SDS011;68119;43.398;3.676;2023-04-15T02:54:48;10.38;;;2.45;;
78774;SDS011;68119;43.398;3.676;2023-04-15T02:57:14;6.18;;;2.00;;
78774;SDS011;68119;43.398;3.676;2023-04-15T02:59:45;8.15;;;2.05;;
78774;SDS011;68119;43.398;3.676;2023-04-15T03:02:17;10.63;;;2.70;;
78774;SDS011;68119;43.398;3.676;2023-04-15T03:04:48;7.03;;;2.75;;
78774;SDS011;68119;43.398;3.676;2023-04-15T03:07:18;8.27;;;2.35;;
78774;SDS011;68119;43.398;3.676;2023-04-15T03:09:48;9.32;;;2.40;;
78774;SDS011;68119;43.398;3.676;2023-04-15T03:12:14;9.40;;;2.50;;
78774;SDS011;68119;43.398;3.676;2023-04-15T03:14:40;7.47;;;2.40;;
78774;SDS011;68119;43.398;3.676;2023-04-15T03:17:06;7.75;;;2.47;;
78774;SDS011;68119;43.398;3.676;2023-04-15T03:19:38;10.35;;;2.53;;
78774;SDS011;68119;43.398;3.676;2023-04-15T03:22:04;9.13;;;2.55;;
78774;SDS011;68119;43.398;3.676;2023-04-15T03:24:35;7.93;;;2.10;;
78774;SDS011;68119;43.398;3.676;2023-04-15T03:27:07;7.05;;;2.30;;
78774;SDS011;68119;43.398;3.676;2023-04-15T03:29:37;6.82;;;2.30;;
78774;SDS011;68119;43.398;3.676;2023-04-15T03:32:06;7.70;;;2.60;;
78774;SDS011;68119;43.398;3.676;2023-04-15T03:34:37;10.75;;;2.63;;
78774;SDS011;68119;43.398;3.676;2023-04-15T03:37:05;8.27;;;2.60;;
78774;SDS011;68119;43.398;3.676;2023-04-15T03:39:34;10.95;;;3.20;;
78774;SDS011;68119;43.398;3.676;2023-04-15T03:42:03;8.90;;;2.70;;
78774;SDS011;68119;43.398;3.676;2023-04-15T03:44:32;11.57;;;3.42;;
78774;SDS011;68119;43.398;3.676;2023-04-15T03:46:58;12.52;;;3.17;;
78774;SDS011;68119;43.398;3.676;2023-04-15T03:49:26;12.40;;;3.40;;
78774;SDS011;68119;43.398;3.676;2023-04-15T03:51:53;13.07;;;3.90;;
78774;SDS011;68119;43.398;3.676;2023-04-15T03:54:24;11.70;;;3.35;;
78774;SDS011;68119;43.398;3.676;2023-04-15T03:56:53;12.15;;;3.65;;
78774;SDS011;68119;43.398;3.676;2023-04-15T03:59:28;14.40;;;3.28;;
78774;SDS011;68119;43.398;3.676;2023-04-15T04:01:57;13.50;;;3.35;;
78774;SDS011;68119;43.398;3.676;2023-04-15T04:04:26;10.82;;;3.35;;
78774;SDS011;68119;43.398;3.676;2023-04-15T04:06:54;13.73;;;3.22;;
78774;SDS011;68119;43.398;3.676;2023-04-15T04:09:25;11.80;;;3.53;;
78774;SDS011;68119;43.398;3.676;2023-04-15T04:11:52;11.98;;;2.92;;
78774;SDS011;68119;43.398;3.676;2023-04-15T04:14:23;9.73;;;3.05;;
78774;SDS011;68119;43.398;3.676;2023-04-15T04:17:04;10.95;;;3.22;;
78774;SDS011;68119;43.398;3.676;2023-04-15T04:19:32;10.73;;;2.88;;
78774;SDS011;68119;43.398;3.676;2023-04-15T04:22:12;10.25;;;3.80;;
78774;SDS011;68119;43.398;3.676;2023-04-15T04:24:48;9.93;;;2.80;;
78774;SDS011;68119;43.398;3.676;2023-04-15T04:27:13;9.70;;;3.03;;
78774;SDS011;68119;43.398;3.676;2023-04-15T04:29:48;9.27;;;3.05;;
78774;SDS011;68119;43.398;3.676;2023-04-15T04:32:17;11.75;;;2.75;;
78774;SDS011;68119;43.398;3.676;2023-04-15T04:34:56;7.13;;;2.42;;
78774;SDS011;68119;43.398;3.676;2023-04-15T04:37:36;7.03;;;2.22;;
78774;SDS011;68119;43.398;3.676;2023-04-15T04:40:09;8.30;;;2.67;;
78774;SDS011;68119;43.398;3.676;2023-04-15T04:42:43;7.72;;;2.53;;
78774;SDS011;68119;43.398;3.676;2023-04-15T04:45:09;8.73;;;2.60;;
78774;SDS011;68119;43.398;3.676;2023-04-15T04:50:09;7.65;;;2.33;;
78774;SDS011;68119;43.398;3.676;2023-04-15T04:52:40;5.30;;;1.75;;
78774;SDS011;68119;43.398;3.676;2023-04-15T04:55:08;5.18;;;1.67;;
78774;SDS011;68119;43.398;3.676;2023-04-15T04:57:46;5.68;;;1.70;;
78774;SDS011;68119;43.398;3.676;2023-04-15T05:00:20;6.25;;;1.90;;
78774;SDS011;68119;43.398;3.676;2023-04-15T05:02:49;6.80;;;2.10;;
78774;SDS011;68119;43.398;3.676;2023-04-15T05:05:29;7.57;;;2.78;;
78774;SDS011;68119;43.398;3.676;2023-04-15T05:07:59;7.68;;;2.30;;
78774;SDS011;68119;43.398;3.676;2023-04-15T05:10:30;8.77;;;2.60;;
78774;SDS011;68119;43.398;3.676;2023-04-15T05:13:05;7.32;;;2.67;;
78774;SDS011;68119;43.398;3.676;2023-04-15T05:18:10;7.55;;;2.15;;
78774;SDS011;68119;43.398;3.676;2023-04-15T05:20:35;7.57;;;2.60;;
78774;SDS011;68119;43.398;3.676;2023-04-15T05:23:07;10.05;;;2.47;;
78774;SDS011;68119;43.398;3.676;2023-04-15T05:25:38;8.23;;;2.65;;
78774;SDS011;68119;43.398;3.676;2023-04-15T05:28:17;9.00;;;3.10;;
78774;SDS011;68119;43.398;3.676;2023-04-15T05:30:45;9.02;;;2.97;;
78774;SDS011;68119;43.398;3.676;2023-04-15T05:33:16;11.20;;;3.40;;
78774;SDS011;68119;43.398;3.676;2023-04-15T05:35:48;10.20;;;3.00;;
78774;SDS011;68119;43.398;3.676;2023-04-15T05:38:13;10.85;;;3.13;;
78774;SDS011;68119;43.398;3.676;2023-04-15T05:40:42;11.05;;;2.95;;
78774;SDS011;68119;43.398;3.676;2023-04-15T05:45:42;9.68;;;2.75;;
78774;SDS011;68119;43.398;3.676;2023-04-15T05:48:08;8.07;;;2.70;;
78774;SDS011;68119;43.398;3.676;2023-04-15T05:50:40;9.63;;;2.75;;
78774;SDS011;68119;43.398;3.676;2023-04-15T05:53:25;7.25;;;2.40;;
78774;SDS011;68119;43.398;3.676;2023-04-15T05:55:51;9.40;;;2.63;;
78774;SDS011;68119;43.398;3.676;2023-04-15T05:58:21;7.43;;;2.28;;
78774;SDS011;68119;43.398;3.676;2023-04-15T06:00:51;8.18;;;2.10;;
78774;SDS011;68119;43.398;3.676;2023-04-15T06:03:19;6.45;;;2.13;;
78774;SDS011;68119;43.398;3.676;2023-04-15T06:05:48;7.43;;;2.28;;
78774;SDS011;68119;43.398;3.676;2023-04-15T06:10:48;6.60;;;2.22;;
78774;SDS011;68119;43.398;3.676;2023-04-15T06:13:19;8.05;;;2.00;;
78774;SDS011;68119;43.398;3.676;2023-04-15T06:15:45;8.05;;;1.95;;
78774;SDS011;68119;43.398;3.676;2023-04-15T06:18:14;8.05;;;2.20;;
78774;SDS011;68119;43.398;3.676;2023-04-15T06:20:39;7.25;;;2.10;;
78774;SDS011;68119;43.398;3.676;2023-04-15T06:23:13;7.50;;;2.42;;
78774;SDS011;68119;43.398;3.676;2023-04-15T06:25:39;7.15;;;1.92;;
78774;SDS011;68119;43.398;3.676;2023-04-15T06:28:10;4.80;;;1.85;;
78774;SDS011;68119;43.398;3.676;2023-04-15T06:30:36;5.68;;;2.17;;
78774;SDS011;68119;43.398;3.676;2023-04-15T06:33:14;7.00;;;1.90;;
78774;SDS011;68119;43.398;3.676;2023-04-15T06:35:40;6.22;;;2.00;;
78774;SDS011;68119;43.398;3.676;2023-04-15T06:38:08;6.43;;;2.28;;
78774;SDS011;68119;43.398;3.676;2023-04-15T06:40:37;6.30;;;2.45;;
78774;SDS011;68119;43.398;3.676;2023-04-15T06:43:06;6.32;;;2.00;;
78774;SDS011;68119;43.398;3.676;2023-04-15T06:45:34;5.90;;;2.00;;
78774;SDS011;68119;43.398;3.676;2023-04-15T06:48:00;4.10;;;1.80;;
78774;SDS011;68119;43.398;3.676;2023-04-15T06:50:25;6.25;;;2.10;;
78774;SDS011;68119;43.398;3.676;2023-04-15T06:52:57;6.13;;;2.20;;
78774;SDS011;68119;43.398;3.676;2023-04-15T06:55:28;6.43;;;2.10;;
78774;SDS011;68119;43.398;3.676;2023-04-15T06:58:00;6.35;;;2.13;;
78774;SDS011;68119;43.398;3.676;2023-04-15T07:00:49;4.40;;;1.70;;
78774;SDS011;68119;43.398;3.676;2023-04-15T07:03:22;4.07;;;1.70;;
78774;SDS011;68119;43.398;3.676;2023-04-15T07:05:53;3.97;;;1.50;;
78774;SDS011;68119;43.398;3.676;2023-04-15T07:08:24;4.95;;;1.45;;
78774;SDS011;68119;43.398;3.676;2023-04-15T07:10:50;4.47;;;1.33;;
78774;SDS011;68119;43.398;3.676;2023-04-15T07:13:19;1.20;;;0.55;;
78774;SDS011;68119;43.398;3.676;2023-04-15T07:15:47;1.85;;;0.80;;
78774;SDS011;68119;43.398;3.676;2023-04-15T07:18:16;1.35;;;0.60;;
78774;SDS011;68119;43.398;3.676;2023-04-15T07:20:54;2.20;;;0.82;;
78774;SDS011;68119;43.398;3.676;2023-04-15T07:23:22;1.13;;;0.63;;
78774;SDS011;68119;43.398;3.676;2023-04-15T07:25:48;4.88;;;1.08;;
78774;SDS011;68119;43.398;3.676;2023-04-15T07:28:17;1.90;;;0.88;;
78774;SDS011;68119;43.398;3.676;2023-04-15T07:30:43;0.88;;;0.47;;
78774;SDS011;68119;43.398;3.676;2023-04-15T07:33:10;2.65;;;0.77;;
78774;SDS011;68119;43.398;3.676;2023-04-15T07:35:42;1.25;;;0.70;;
78774;SDS011;68119;43.398;3.676;2023-04-15T07:38:09;0.80;;;0.50;;
78774;SDS011;68119;43.398;3.676;2023-04-15T07:40:38;2.20;;;0.70;;
78774;SDS011;68119;43.398;3.676;2023-04-15T07:43:04;1.63;;;0.75;;
78774;SDS011;68119;43.398;3.676;2023-04-15T07:45:33;5.50;;;1.33;;
78774;SDS011;68119;43.398;3.676;2023-04-15T07:47:59;2.10;;;0.95;;
78774;SDS011;68119;43.398;3.676;2023-04-15T07:50:29;2.38;;;1.15;;
78774;SDS011;68119;43.398;3.676;2023-04-15T07:52:55;2.85;;;1.25;;
78774;SDS011;68119;43.398;3.676;2023-04-15T07:55:21;2.55;;;1.30;;
78774;SDS011;68119;43.398;3.676;2023-04-15T07:57:48;8.02;;;1.52;;
78774;SDS011;68119;43.398;3.676;2023-04-15T08:00:14;5.88;;;1.60;;
78774;SDS011;68119;43.398;3.676;2023-04-15T08:02:48;4.72;;;1.45;;
78774;SDS011;68119;43.398;3.676;2023-04-15T08:05:16;5.03;;;1.63;;
78774;SDS011;68119;43.398;3.676;2023-04-15T08:07:45;4.30;;;1.55;;
78774;SDS011;68119;43.398;3.676;2023-04-15T08:10:19;3.22;;;1.48;;
78774;SDS011;68119;43.398;3.676;2023-04-15T08:12:48;3.58;;;1.50;;
78774;SDS011;68119;43.398;3.676;2023-04-15T08:15:21;5.50;;;1.20;;
78774;SDS011;68119;43.398;3.676;2023-04-15T08:17:47;4.45;;;1.48;;
78774;SDS011;68119;43.398;3.676;2023-04-15T08:20:16;5.93;;;2.00;;
78774;SDS011;68119;43.398;3.676;2023-04-15T08:22:50;5.70;;;1.52;;
78774;SDS011;68119;43.398;3.676;2023-04-15T08:25:28;4.28;;;1.75;;
78774;SDS011;68119;43.398;3.676;2023-04-15T08:28:06;4.80;;;1.70;;
78774;SDS011;68119;43.398;3.676;2023-04-15T08:30:41;6.70;;;1.63;;
78774;SDS011;68119;43.398;3.676;2023-04-15T08:33:10;3.33;;;1.33;;
78774;SDS011;68119;43.398;3.676;2023-04-15T08:35:40;7.00;;;1.87;;
78774;SDS011;68119;43.398;3.676;2023-04-15T08:40:41;7.22;;;1.55;;
78774;SDS011;68119;43.398;3.676;2023-04-15T08:43:20;5.88;;;1.73;;
78774;SDS011;68119;43.398;3.676;2023-04-15T08:45:53;5.45;;;1.80;;
78774;SDS011;68119;43.398;3.676;2023-04-15T08:48:19;6.63;;;2.00;;
78774;SDS011;68119;43.398;3.676;2023-04-15T08:50:47;3.83;;;1.65;;
78774;SDS011;68119;43.398;3.676;2023-04-15T08:53:24;8.77;;;1.85;;
78774;SDS011;68119;43.398;3.676;2023-04-15T08:55:53;6.57;;;1.58;;
78774;SDS011;68119;43.398;3.676;2023-04-15T08:58:22;10.88;;;2.03;;
78774;SDS011;68119;43.398;3.676;2023-04-15T09:00:59;6.75;;;1.70;;
78774;SDS011;68119;43.398;3.676;2023-04-15T09:03:25;9.80;;;1.67;;
78774;SDS011;68119;43.398;3.676;2023-04-15T09:06:00;7.32;;;1.80;;
78774;SDS011;68119;43.398;3.676;2023-04-15T09:08:29;6.40;;;1.70;;
78774;SDS011;68119;43.398;3.676;2023-04-15T09:11:02;6.88;;;2.05;;
78774;SDS011;68119;43.398;3.676;2023-04-15T09:13:36;4.57;;;1.50;;
78774;SDS011;68119;43.398;3.676;2023-04-15T09:16:09;4.93;;;1.80;;
78774;SDS011;68119;43.398;3.676;2023-04-15T09:18:38;8.32;;;2.20;;
78774;SDS011;68119;43.398;3.676;2023-04-15T09:21:21;6.88;;;1.88;;
78774;SDS011;68119;43.398;3.676;2023-04-15T09:23:59;5.43;;;1.80;;
78774;SDS011;68119;43.398;3.676;2023-04-15T09:26:36;10.25;;;1.85;;
78774;SDS011;68119;43.398;3.676;2023-04-15T09:29:08;7.57;;;1.67;;
78774;SDS011;68119;43.398;3.676;2023-04-15T09:31:49;9.15;;;2.00;;
78774;SDS011;68119;43.398;3.676;2023-04-15T09:34:34;8.70;;;1.98;;
78774;SDS011;68119;43.398;3.676;2023-04-15T09:37:05;8.07;;;1.73;;
78774;SDS011;68119;43.398;3.676;2023-04-15T09:42:29;5.20;;;2.05;;
78774;SDS011;68119;43.398;3.676;2023-04-15T09:45:12;5.43;;;1.58;;
78774;SDS011;68119;43.398;3.676;2023-04-15T09:47:40;11.57;;;1.95;;
78774;SDS011;68119;43.398;3.676;2023-04-15T09:50:09;7.22;;;1.85;;
78774;SDS011;68119;43.398;3.676;2023-04-15T09:52:43;5.88;;;2.00;;
78774;SDS011;68119;43.398;3.676;2023-04-15T09:55:10;7.38;;;2.22;;
78774;SDS011;68119;43.398;3.676;2023-04-15T09:57:40;6.95;;;2.10;;
78774;SDS011;68119;43.398;3.676;2023-04-15T10:02:50;4.30;;;1.73;;
78774;SDS011;68119;43.398;3.676;2023-04-15T10:05:19;6.32;;;1.88;;
78774;SDS011;68119;43.398;3.676;2023-04-15T10:07:53;4.78;;;2.10;;
78774;SDS011;68119;43.398;3.676;2023-04-15T10:10:22;5.70;;;1.92;;
78774;SDS011;68119;43.398;3.676;2023-04-15T10:12:48;4.65;;;1.90;;
78774;SDS011;68119;43.398;3.676;2023-04-15T10:15:21;6.55;;;2.08;;
78774;SDS011;68119;43.398;3.676;2023-04-15T10:17:51;8.10;;;2.15;;
78774;SDS011;68119;43.398;3.676;2023-04-15T10:20:20;5.43;;;1.80;;
78774;SDS011;68119;43.398;3.676;2023-04-15T10:22:47;5.40;;;1.80;;
78774;SDS011;68119;43.398;3.676;2023-04-15T10:25:20;6.40;;;2.03;;
78774;SDS011;68119;43.398;3.676;2023-04-15T10:27:47;10.00;;;1.92;;
78774;SDS011;68119;43.398;3.676;2023-04-15T10:30:16;7.22;;;2.08;;
78774;SDS011;68119;43.398;3.676;2023-04-15T10:32:45;4.40;;;2.03;;
78774;SDS011;68119;43.398;3.676;2023-04-15T10:35:14;6.18;;;2.15;;
78774;SDS011;68119;43.398;3.676;2023-04-15T10:37:46;15.48;;;2.50;;
78774;SDS011;68119;43.398;3.676;2023-04-15T10:40:23;7.40;;;2.00;;
78774;SDS011;68119;43.398;3.676;2023-04-15T10:43:01;6.95;;;2.20;;
78774;SDS011;68119;43.398;3.676;2023-04-15T10:45:31;4.63;;;1.48;;
78774;SDS011;68119;43.398;3.676;2023-04-15T10:48:00;3.63;;;1.53;;
78774;SDS011;68119;43.398;3.676;2023-04-15T10:50:30;5.38;;;1.70;;
78774;SDS011;68119;43.398;3.676;2023-04-15T10:53:01;3.88;;;1.65;;
78774;SDS011;68119;43.398;3.676;2023-04-15T10:55:32;6.15;;;1.80;;
78774;SDS011;68119;43.398;3.676;2023-04-15T10:57:58;7.75;;;1.92;;
78774;SDS011;68119;43.398;3.676;2023-04-15T11:00:27;8.10;;;1.95;;
78774;SDS011;68119;43.398;3.676;2023-04-15T11:06:08;7.13;;;2.00;;
78774;SDS011;68119;43.398;3.676;2023-04-15T11:08:56;6.90;;;1.92;;
78774;SDS011;68119;43.398;3.676;2023-04-15T11:11:43;4.78;;;1.55;;
78774;SDS011;68119;43.398;3.676;2023-04-15T11:14:17;5.38;;;1.70;;
78774;SDS011;68119;43.398;3.676;2023-04-15T11:16:46;5.43;;;2.00;;
78774;SDS011;68119;43.398;3.676;2023-04-15T11:19:23;6.47;;;2.38;;
78774;SDS011;68119;43.398;3.676;2023-04-15T11:22:16;6.53;;;2.28;;
78774;SDS011;68119;43.398;3.676;2023-04-15T11:24:46;5.53;;;2.50;;
78774;SDS011;68119;43.398;3.676;2023-04-15T11:27:32;12.20;;;2.55;;
78774;SDS011;68119;43.398;3.676;2023-04-15T11:30:16;5.25;;;2.00;;
78774;SDS011;68119;43.398;3.676;2023-04-15T11:32:50;6.05;;;2.00;;
78774;SDS011;68119;43.398;3.676;2023-04-15T11:35:26;4.00;;;1.80;;
78774;SDS011;68119;43.398;3.676;2023-04-15T11:37:52;7.90;;;2.00;;
78774;SDS011;68119;43.398;3.676;2023-04-15T11:40:28;5.03;;;2.10;;
78774;SDS011;68119;43.398;3.676;2023-04-15T11:46:06;6.32;;;2.10;;
78774;SDS011;68119;43.398;3.676;2023-04-15T11:48:40;5.47;;;1.52;;
78774;SDS011;68119;43.398;3.676;2023-04-15T11:51:13;7.65;;;1.80;;
78774;SDS011;68119;43.398;3.676;2023-04-15T11:53:48;4.45;;;1.85;;
78774;SDS011;68119;43.398;3.676;2023-04-15T11:56:23;5.30;;;1.70;;
78774;SDS011;68119;43.398;3.676;2023-04-15T11:58:53;6.88;;;2.10;;
78774;SDS011;68119;43.398;3.676;2023-04-15T12:01:32;4.75;;;1.90;;
78774;SDS011;68119;43.398;3.676;2023-04-15T12:03:59;4.20;;;1.70;;
78774;SDS011;68119;43.398;3.676;2023-04-15T12:06:35;4.78;;;1.70;;
78774;SDS011;68119;43.398;3.676;2023-04-15T12:09:14;5.43;;;2.05;;
78774;SDS011;68119;43.398;3.676;2023-04-15T12:14:11;10.70;;;1.90;;
78774;SDS011;68119;43.398;3.676;2023-04-15T12:19:08;5.13;;;1.80;;
78774;SDS011;68119;43.398;3.676;2023-04-15T12:21:35;2.72;;;1.50;;
78774;SDS011;68119;43.398;3.676;2023-04-15T12:24:06;4.65;;;1.90;;
78774;SDS011;68119;43.398;3.676;2023-04-15T12:29:19;3.63;;;1.50;;
78774;SDS011;68119;43.398;3.676;2023-04-15T12:31:47;3.67;;;1.92;;
78774;SDS011;68119;43.398;3.676;2023-04-15T12:34:14;5.72;;;1.73;;
78774;SDS011;68119;43.398;3.676;2023-04-15T12:36:44;4.35;;;1.75;;
78774;SDS011;68119;43.398;3.676;2023-04-15T12:39:10;5.57;;;1.80;;
78774;SDS011;68119;43.398;3.676;2023-04-15T12:41:38;7.22;;;2.70;;
78774;SDS011;68119;43.398;3.676;2023-04-15T12:44:04;3.10;;;1.70;;
78774;SDS011;68119;43.398;3.676;2023-04-15T12:46:34;6.15;;;2.35;;
78774;SDS011;68119;43.398;3.676;2023-04-15T12:49:04;5.78;;;2.90;;
78774;SDS011;68119;43.398;3.676;2023-04-15T12:51:31;6.82;;;1.63;;
78774;SDS011;68119;43.398;3.676;2023-04-15T12:54:00;5.47;;;2.50;;
78774;SDS011;68119;43.398;3.676;2023-04-15T12:56:26;4.53;;;1.70;;
78774;SDS011;68119;43.398;3.676;2023-04-15T12:59:07;4.97;;;1.75;;
78774;SDS011;68119;43.398;3.676;2023-04-15T13:01:36;7.90;;;2.10;;
78774;SDS011;68119;43.398;3.676;2023-04-15T13:04:03;6.18;;;2.30;;
78774;SDS011;68119;43.398;3.676;2023-04-15T13:06:32;6.90;;;2.00;;
78774;SDS011;68119;43.398;3.676;2023-04-15T13:09:02;8.70;;;1.75;;
78774;SDS011;68119;43.398;3.676;2023-04-15T13:11:31;2.35;;;1.30;;
78774;SDS011;68119;43.398;3.676;2023-04-15T13:14:01;4.97;;;1.70;;
78774;SDS011;68119;43.398;3.676;2023-04-15T13:16:30;8.05;;;1.90;;
78774;SDS011;68119;43.398;3.676;2023-04-15T13:19:03;5.90;;;1.92;;
78774;SDS011;68119;43.398;3.676;2023-04-15T13:21:32;5.40;;;1.70;;
78774;SDS011;68119;43.398;3.676;2023-04-15T13:23:59;3.40;;;1.50;;
78774;SDS011;68119;43.398;3.676;2023-04-15T13:26:45;4.80;;;1.60;;
78774;SDS011;68119;43.398;3.676;2023-04-15T13:29:11;4.60;;;1.38;;
78774;SDS011;68119;43.398;3.676;2023-04-15T13:31:38;5.68;;;1.77;;
78774;SDS011;68119;43.398;3.676;2023-04-15T13:34:07;4.60;;;1.60;;
78774;SDS011;68119;43.398;3.676;2023-04-15T13:36:33;7.30;;;1.60;;
78774;SDS011;68119;43.398;3.676;2023-04-15T13:38:59;3.40;;;1.60;;
78774;SDS011;68119;43.398;3.676;2023-04-15T13:43:59;5.13;;;1.75;;
78774;SDS011;68119;43.398;3.676;2023-04-15T13:46:30;3.67;;;1.83;;
78774;SDS011;68119;43.398;3.676;2023-04-15T13:49:00;7.57;;;1.92;;
78774;SDS011;68119;43.398;3.676;2023-04-15T13:51:26;6.05;;;1.42;;
78774;SDS011;68119;43.398;3.676;2023-04-15T13:53:54;13.77;;;2.35;;
78774;SDS011;68119;43.398;3.676;2023-04-15T13:56:29;4.13;;;1.58;;
78774;SDS011;68119;43.398;3.676;2023-04-15T13:59:05;7.70;;;1.83;;
78774;SDS011;68119;43.398;3.676;2023-04-15T14:01:33;5.00;;;1.65;;
78774;SDS011;68119;43.398;3.676;2023-04-15T14:03:59;5.85;;;1.70;;
78774;SDS011;68119;43.398;3.676;2023-04-15T14:06:25;4.28;;;1.70;;
78774;SDS011;68119;43.398;3.676;2023-04-15T14:08:52;4.30;;;1.70;;
78774;SDS011;68119;43.398;3.676;2023-04-15T14:11:26;11.13;;;2.33;;
78774;SDS011;68119;43.398;3.676;2023-04-15T14:13:54;8.85;;;2.50;;
78774;SDS011;68119;43.398;3.676;2023-04-15T14:16:26;9.90;;;2.00;;
78774;SDS011;68119;43.398;3.676;2023-04-15T14:18:55;10.15;;;1.90;;
78774;SDS011;68119;43.398;3.676;2023-04-15T14:21:21;13.23;;;2.25;;
78774;SDS011;68119;43.398;3.676;2023-04-15T14:23:59;18.05;;;2.75;;
78774;SDS011;68119;43.398;3.676;2023-04-15T14:26:25;6.35;;;1.90;;
78774;SDS011;68119;43.398;3.676;2023-04-15T14:28:57;6.20;;;1.98;;
78774;SDS011;68119;43.398;3.676;2023-04-15T14:31:26;7.93;;;1.92;;
78774;SDS011;68119;43.398;3.676;2023-04-15T14:33:55;7.35;;;2.03;;
78774;SDS011;68119;43.398;3.676;2023-04-15T14:36:24;3.30;;;1.75;;
78774;SDS011;68119;43.398;3.676;2023-04-15T14:38:51;5.28;;;1.70;;
78774;SDS011;68119;43.398;3.676;2023-04-15T14:41:22;6.30;;;1.98;;
78774;SDS011;68119;43.398;3.676;2023-04-15T14:43:51;5.20;;;1.60;;
78774;SDS011;68119;43.398;3.676;2023-04-15T14:46:29;15.82;;;2.17;;
78774;SDS011;68119;43.398;3.676;2023-04-15T14:48:55;7.22;;;1.98;;
78774;SDS011;68119;43.398;3.676;2023-04-15T14:51:22;11.48;;;2.03;;
78774;SDS011;68119;43.398;3.676;2023-04-15T14:53:53;5.38;;;1.67;;
78774;SDS011;68119;43.398;3.676;2023-04-15T14:56:23;6.65;;;2.00;;
78774;SDS011;68119;43.398;3.676;2023-04-15T14:58:52;10.57;;;2.25;;
78774;SDS011;68119;43.398;3.676;2023-04-15T15:01:20;8.65;;;2.42;;
78774;SDS011;68119;43.398;3.676;2023-04-15T15:03:49;11.05;;;2.10;;
78774;SDS011;68119;43.398;3.676;2023-04-15T15:06:15;6.03;;;2.15;;
78774;SDS011;68119;43.398;3.676;2023-04-15T15:08:47;5.20;;;2.05;;
78774;SDS011;68119;43.398;3.676;2023-04-15T15:11:13;11.20;;;2.20;;
78774;SDS011;68119;43.398;3.676;2023-04-15T15:13:39;7.85;;;1.90;;
78774;SDS011;68119;43.398;3.676;2023-04-15T15:16:05;8.10;;;1.75;;
78774;SDS011;68119;43.398;3.676;2023-04-15T15:18:31;10.15;;;1.90;;
78774;SDS011;68119;43.398;3.676;2023-04-15T15:21:08;6.38;;;1.73;;
78774;SDS011;68119;43.398;3.676;2023-04-15T15:23:39;13.15;;;2.10;;
78774;SDS011;68119;43.398;3.676;2023-04-15T15:26:15;11.63;;;1.83;;
78774;SDS011;68119;43.398;3.676;2023-04-15T15:28:41;7.25;;;1.83;;
78774;SDS011;68119;43.398;3.676;2023-04-15T15:31:10;10.90;;;2.20;;
78774;SDS011;68119;43.398;3.676;2023-04-15T15:33:36;9.70;;;1.65;;
78774;SDS011;68119;43.398;3.676;2023-04-15T15:36:11;6.43;;;1.60;;
78774;SDS011;68119;43.398;3.676;2023-04-15T15:38:40;6.80;;;1.60;;
78774;SDS011;68119;43.398;3.676;2023-04-15T15:41:06;4.28;;;1.60;;
78774;SDS011;68119;43.398;3.676;2023-04-15T15:43:32;4.18;;;1.70;;
78774;SDS011;68119;43.398;3.676;2023-04-15T15:46:00;5.03;;;1.88;;